createdAt,value
2019-03-08T00:02:38.114Z,8.10
2019-03-08T00:05:25.772Z,8.10
2019-03-08T00:08:13.351Z,8.10
2019-03-08T00:11:00.925Z,8.10
2019-03-08T00:13:48.812Z,8.10
2019-03-08T00:16:36.622Z,8.20
2019-03-08T00:19:24.513Z,8.20
2019-03-08T00:22:11.717Z,8.20
2019-03-08T00:24:58.944Z,8.30
2019-03-08T00:27:46.404Z,8.20
2019-03-08T00:33:16.263Z,8.30
2019-03-08T00:36:04.150Z,8.40
2019-03-08T00:38:52.085Z,8.40
2019-03-08T00:41:39.815Z,8.30
2019-03-08T00:44:27.752Z,8.40
2019-03-08T00:47:15.461Z,8.40
2019-03-08T00:50:02.994Z,8.30
2019-03-08T00:52:51.028Z,8.30
2019-03-08T00:55:38.622Z,8.30
2019-03-08T00:58:26.291Z,8.30
2019-03-08T01:01:13.406Z,8.40
2019-03-08T01:04:01.053Z,8.40
2019-03-08T01:06:48.731Z,8.40
2019-03-08T01:09:36.710Z,8.40
2019-03-08T01:12:24.311Z,8.40
2019-03-08T01:15:12.868Z,8.40
2019-03-08T01:18:00.560Z,8.40
2019-03-08T01:20:48.205Z,8.50
2019-03-08T01:23:36.253Z,8.60
2019-03-08T01:26:23.676Z,8.60
2019-03-08T01:29:10.903Z,8.60
2019-03-08T01:31:58.113Z,8.70
2019-03-08T01:34:45.804Z,8.70
2019-03-08T01:37:33.465Z,8.70
2019-03-08T01:40:21.122Z,8.60
2019-03-08T01:43:08.909Z,8.70
2019-03-08T01:45:56.308Z,8.70
2019-03-08T01:48:43.828Z,8.70
2019-03-08T01:51:31.721Z,8.60
2019-03-08T01:54:19.232Z,8.60
2019-03-08T01:57:06.716Z,8.60
2019-03-08T01:59:54.733Z,8.60
2019-03-08T02:02:42.523Z,8.50
2019-03-08T02:05:29.825Z,8.50
2019-03-08T02:08:17.383Z,8.50
2019-03-08T02:11:05.413Z,8.50
2019-03-08T02:13:53.171Z,8.40
2019-03-08T02:16:40.927Z,8.40
2019-03-08T02:19:28.578Z,8.30
2019-03-08T02:22:16.639Z,8.30
2019-03-08T02:25:04.325Z,8.30
2019-03-08T02:27:52.427Z,8.20
2019-03-08T02:30:40.103Z,8.20
2019-03-08T02:33:28.292Z,8.10
2019-03-08T02:36:15.843Z,8.10
2019-03-08T02:39:05.392Z,8.00
2019-03-08T02:41:53.127Z,8.00
2019-03-08T02:44:40.746Z,8.00
2019-03-08T02:47:28.274Z,7.80
2019-03-08T02:50:15.981Z,7.90
2019-03-08T02:53:03.733Z,7.90
2019-03-08T02:55:51.869Z,7.90
2019-03-08T02:58:39.701Z,7.80
2019-03-08T03:01:27.414Z,7.80
2019-03-08T03:04:15.248Z,7.80
2019-03-08T03:07:02.803Z,7.80
2019-03-08T03:09:50.526Z,7.80
2019-03-08T03:12:37.646Z,7.80
2019-03-08T03:15:24.891Z,7.80
2019-03-08T03:18:12.951Z,7.80
2019-03-08T03:21:00.765Z,7.80
2019-03-08T03:23:48.136Z,7.80
2019-03-08T03:26:36.065Z,7.80
2019-03-08T03:29:23.563Z,7.70
2019-03-08T03:32:11.266Z,7.80
2019-03-08T03:34:58.687Z,7.80
2019-03-08T03:37:46.265Z,7.80
2019-03-08T03:40:33.660Z,7.80
2019-03-08T03:43:21.721Z,7.70
2019-03-08T03:46:09.591Z,7.70
2019-03-08T03:48:57.242Z,7.70
2019-03-08T03:51:44.993Z,7.70
2019-03-08T03:54:32.398Z,7.60
2019-03-08T03:57:20.316Z,7.60
2019-03-08T04:00:09.366Z,7.60
2019-03-08T04:02:57.061Z,7.60
2019-03-08T04:05:44.309Z,7.60
2019-03-08T04:08:32.406Z,7.60
2019-03-08T04:11:19.710Z,7.60
2019-03-08T04:14:07.136Z,7.60
2019-03-08T04:16:55.110Z,7.60
2019-03-08T04:19:42.783Z,7.50
2019-03-08T04:22:44.180Z,7.50
2019-03-08T04:25:32.235Z,7.50
2019-03-08T04:28:21.147Z,7.40
2019-03-08T04:31:52.381Z,7.30
2019-03-08T04:34:40.808Z,7.30
2019-03-08T04:37:28.937Z,7.20
2019-03-08T04:40:17.003Z,7.10
2019-03-08T04:47:06.528Z,7.20
2019-03-08T04:56:41.224Z,7.20
2019-03-08T04:59:33.104Z,7.30
2019-03-08T05:02:24.864Z,7.20
2019-03-08T05:05:13.249Z,7.20
2019-03-08T05:08:04.373Z,7.20
2019-03-08T05:10:57.787Z,7.00
2019-03-08T05:13:59.039Z,6.90
2019-03-08T05:16:54.472Z,6.70
2019-03-08T05:19:51.449Z,6.30
2019-03-08T05:22:59.727Z,5.90
2019-03-08T05:25:55.681Z,5.70
2019-03-08T05:28:55.608Z,5.50
2019-03-08T05:31:48.080Z,5.40
2019-03-08T05:34:45.534Z,5.40
2019-03-08T05:37:46.603Z,5.40
2019-03-08T05:40:42.550Z,5.30
2019-03-08T05:43:32.699Z,5.40
2019-03-08T05:46:36.038Z,5.40
2019-03-08T05:49:33.998Z,5.40
2019-03-08T05:52:29.056Z,5.30
2019-03-08T05:55:24.611Z,5.30
2019-03-08T05:58:11.034Z,5.30
2019-03-08T06:01:03.135Z,5.30
2019-03-08T06:03:50.880Z,5.30
2019-03-08T06:06:38.700Z,5.30
2019-03-08T06:09:27.007Z,5.30
2019-03-08T06:12:14.941Z,5.30
2019-03-08T06:15:05.032Z,5.30
2019-03-08T06:17:58.688Z,5.40
2019-03-08T06:20:48.655Z,5.40
2019-03-08T06:23:39.698Z,5.50
2019-03-08T06:26:27.858Z,5.50
2019-03-08T06:29:20.780Z,5.60
2019-03-08T06:32:08.573Z,5.60
2019-03-08T06:34:59.037Z,5.60
2019-03-08T06:37:47.557Z,5.60
2019-03-08T06:40:35.801Z,5.60
2019-03-08T06:43:26.874Z,5.70
2019-03-08T06:46:14.794Z,5.70
2019-03-08T06:49:02.484Z,5.80
2019-03-08T06:51:53.652Z,5.80
2019-03-08T06:54:41.736Z,5.90
2019-03-08T06:57:32.735Z,6.10
2019-03-08T07:00:30.557Z,6.20
2019-03-08T07:03:28.431Z,6.30
2019-03-08T07:06:16.759Z,6.40
2019-03-08T07:09:07.217Z,6.40
2019-03-08T07:11:55.397Z,6.50
2019-03-08T07:14:43.908Z,6.50
2019-03-08T07:17:39.423Z,6.60
2019-03-08T07:20:38.618Z,6.60
2019-03-08T07:23:51.881Z,6.70
2019-03-08T07:26:57.857Z,6.80
2019-03-08T07:30:08.343Z,6.90
2019-03-08T07:33:13.932Z,7.00
2019-03-08T07:36:20.932Z,7.00
2019-03-08T07:39:32.552Z,7.10
2019-03-08T07:42:38.345Z,7.10
2019-03-08T07:45:44.307Z,7.20
2019-03-08T07:48:52.619Z,7.20
2019-03-08T07:51:52.882Z,7.20
2019-03-08T07:54:58.254Z,7.50
2019-03-08T07:57:54.223Z,7.80
2019-03-08T08:00:52.226Z,8.00
2019-03-08T08:04:08.399Z,8.10
2019-03-08T08:07:15.071Z,8.40
2019-03-08T08:10:29.952Z,8.90
2019-03-08T08:13:49.366Z,8.60
2019-03-08T08:16:55.022Z,8.50
2019-03-08T08:20:16.812Z,8.40
2019-03-08T08:23:36.293Z,8.20
2019-03-08T08:26:40.684Z,8.20
2019-03-08T08:29:44.212Z,8.40
2019-03-08T08:33:06.182Z,8.50
2019-03-08T08:36:13.729Z,8.70
2019-03-08T08:39:16.964Z,8.80
2019-03-08T08:42:29.183Z,8.80
2019-03-08T08:45:41.819Z,8.60
2019-03-08T08:48:52.069Z,8.60
2019-03-08T08:51:58.721Z,8.70
2019-03-08T08:55:05.786Z,8.80
2019-03-08T08:58:15.711Z,8.70
2019-03-08T09:01:20.328Z,8.60
2019-03-08T09:04:47.143Z,8.70
2019-03-08T09:07:45.753Z,8.80
2019-03-08T09:10:55.209Z,9.00
2019-03-08T09:13:55.517Z,8.80
2019-03-08T09:16:57.664Z,8.90
2019-03-08T09:20:01.168Z,9.10
2019-03-08T09:23:12.849Z,9.10
2019-03-08T09:26:08.792Z,9.00
2019-03-08T09:29:21.631Z,8.90
2019-03-08T09:32:28.948Z,8.90
2019-03-08T09:35:32.049Z,9.20
2019-03-08T09:38:42.447Z,9.30
2019-03-08T09:41:49.330Z,9.60
2019-03-08T09:45:15.064Z,10.30
2019-03-08T09:48:24.888Z,10.40
2019-03-08T09:51:44.006Z,9.90
2019-03-08T09:54:38.938Z,9.60
2019-03-08T09:57:34.621Z,9.40
2019-03-08T10:00:41.503Z,9.60
2019-03-08T10:03:51.367Z,10.30
2019-03-08T10:07:01.283Z,10.20
2019-03-08T10:10:09.404Z,10.20
2019-03-08T10:13:16.466Z,10.00
2019-03-08T10:16:38.999Z,9.80
2019-03-08T10:19:54.466Z,9.60
2019-03-08T10:22:56.748Z,9.50
2019-03-08T10:26:09.570Z,9.20
2019-03-08T10:29:15.151Z,9.20
2019-03-08T10:32:40.370Z,9.30
2019-03-08T10:35:47.171Z,9.20
2019-03-08T10:39:01.368Z,9.20
2019-03-08T10:42:21.670Z,9.10
2019-03-08T10:45:29.455Z,9.10
2019-03-08T10:48:42.242Z,9.20
2019-03-08T10:51:49.039Z,9.90
2019-03-08T10:54:44.498Z,10.20
2019-03-08T10:57:50.365Z,10.50
2019-03-08T11:00:56.003Z,10.60
2019-03-08T11:04:00.394Z,11.00
2019-03-08T11:07:06.094Z,11.50
2019-03-08T11:10:11.426Z,11.80
2019-03-08T11:13:21.189Z,12.10
2019-03-08T11:16:25.784Z,12.30
2019-03-08T11:19:45.679Z,12.20
2019-03-08T11:22:51.869Z,12.60
2019-03-08T11:25:58.060Z,12.50
2019-03-08T11:29:17.671Z,12.00
2019-03-08T11:32:23.058Z,11.60
2019-03-08T11:35:29.676Z,11.30
2019-03-08T11:38:33.453Z,11.20
2019-03-08T11:41:32.606Z,11.10
2019-03-08T11:44:29.475Z,11.00
2019-03-08T11:47:23.704Z,10.90
2019-03-08T11:50:25.568Z,10.90
2019-03-08T11:56:56.325Z,11.10
2019-03-08T12:00:16.783Z,11.50
2019-03-08T12:03:19.213Z,11.50
2019-03-08T12:06:35.825Z,11.60
2019-03-08T12:09:59.229Z,12.40
2019-03-08T12:13:08.957Z,12.50
2019-03-08T12:16:21.651Z,11.90
2019-03-08T12:19:24.064Z,11.30
2019-03-08T12:22:33.434Z,11.30
2019-03-08T12:26:00.671Z,11.00
2019-03-08T12:29:05.300Z,11.00
2019-03-08T12:32:02.479Z,11.00
2019-03-08T12:35:14.167Z,11.00
2019-03-08T12:38:15.883Z,11.20
2019-03-08T12:41:23.265Z,11.20
2019-03-08T12:44:42.284Z,11.10
2019-03-08T12:48:02.860Z,11.60
2019-03-08T12:51:13.921Z,12.00
2019-03-08T12:54:28.982Z,12.50
2019-03-08T12:57:31.722Z,11.50
2019-03-08T13:00:50.687Z,11.80
2019-03-08T13:04:20.491Z,11.90
2019-03-08T13:07:28.497Z,12.00
2019-03-08T13:10:16.684Z,11.90
2019-03-08T13:13:04.844Z,11.60
2019-03-08T13:15:53.017Z,11.90
2019-03-08T13:18:41.032Z,11.70
2019-03-08T13:21:37.428Z,11.40
2019-03-08T13:24:25.260Z,11.50
2019-03-08T13:27:13.217Z,11.50
2019-03-08T13:30:03.013Z,11.40
2019-03-08T13:33:07.197Z,11.30
2019-03-08T13:35:55.415Z,11.20
2019-03-08T13:38:57.060Z,11.30
2019-03-08T13:41:53.207Z,11.50
2019-03-08T13:44:42.018Z,11.50
2019-03-08T13:47:37.957Z,13.00
2019-03-08T13:50:25.781Z,14.10
2019-03-08T13:53:13.965Z,13.10
2019-03-08T13:56:01.534Z,12.60
2019-03-08T13:59:05.323Z,13.70
2019-03-08T14:01:53.289Z,12.60
2019-03-08T14:04:44.098Z,13.40
2019-03-08T14:07:48.065Z,12.70
2019-03-08T14:10:48.334Z,11.80
2019-03-08T14:21:16.097Z,14.10
2019-03-08T14:28:30.135Z,15.80
2019-03-08T14:35:37.641Z,14.10
2019-03-08T14:38:47.890Z,14.60
2019-03-08T14:42:13.036Z,13.50
2019-03-08T14:49:47.336Z,12.80
2019-03-08T14:57:26.889Z,12.20
2019-03-08T15:05:11.665Z,12.00
2019-03-08T15:08:44.996Z,11.50
2019-03-08T15:12:18.295Z,11.10
2019-03-08T15:16:10.233Z,11.10
2019-03-08T15:19:16.536Z,11.30
2019-03-08T15:22:51.598Z,11.50
2019-03-08T15:25:45.222Z,14.30
2019-03-08T15:28:57.976Z,16.10
2019-03-08T15:35:40.237Z,14.50
2019-03-08T15:38:58.768Z,13.30
2019-03-08T15:42:07.810Z,13.10
2019-03-08T15:44:57.291Z,12.60
2019-03-08T15:47:45.019Z,12.50
2019-03-08T15:50:32.711Z,14.20
2019-03-08T15:53:20.406Z,15.70
2019-03-08T15:56:08.370Z,15.40
2019-03-08T15:58:58.503Z,15.20
2019-03-08T16:01:46.458Z,14.50
2019-03-08T16:04:36.511Z,14.50
2019-03-08T16:07:26.298Z,15.10
2019-03-08T16:10:14.535Z,14.60
2019-03-08T16:13:02.930Z,15.20
2019-03-08T16:15:51.290Z,15.90
2019-03-08T16:18:40.163Z,15.30
2019-03-08T16:21:32.606Z,14.10
2019-03-08T16:24:20.603Z,14.00
2019-03-08T16:27:08.244Z,13.90
2019-03-08T16:29:55.887Z,14.00
2019-03-08T16:32:51.898Z,13.70
2019-03-08T16:35:51.374Z,13.80
2019-03-08T16:38:44.677Z,12.20
2019-03-08T16:41:53.912Z,11.40
2019-03-08T16:44:59.044Z,11.30
2019-03-08T16:48:07.216Z,11.40
2019-03-08T16:51:13.392Z,11.20
2019-03-08T16:54:10.585Z,11.20
2019-03-08T16:57:27.101Z,11.00
2019-03-08T17:00:23.059Z,10.70
2019-03-08T17:03:24.738Z,10.40
2019-03-08T17:06:34.648Z,10.30
2019-03-08T17:09:35.272Z,10.20
2019-03-08T17:12:47.872Z,10.00
2019-03-08T17:15:44.740Z,10.00
2019-03-08T17:19:11.947Z,10.00
2019-03-08T17:22:23.849Z,9.80
2019-03-08T17:25:17.809Z,9.80
2019-03-08T17:28:44.978Z,9.80
2019-03-08T17:32:01.968Z,9.70
2019-03-08T17:35:17.784Z,9.50
2019-03-08T17:38:23.387Z,9.40
2019-03-08T17:41:24.875Z,9.30
2019-03-08T17:44:32.658Z,9.20
2019-03-08T17:47:29.707Z,9.10
2019-03-08T17:50:35.401Z,9.10
2019-03-08T17:53:48.392Z,9.10
2019-03-08T17:57:04.009Z,9.00
2019-03-08T18:00:13.084Z,9.00
2019-03-08T18:03:23.036Z,8.80
2019-03-08T18:06:50.509Z,8.70
2019-03-08T18:09:56.619Z,8.60
2019-03-08T18:13:22.946Z,8.30
2019-03-08T18:16:13.922Z,8.00
2019-03-08T18:19:12.482Z,7.90
2019-03-08T18:22:24.602Z,7.60
2019-03-08T18:25:31.226Z,7.50
2019-03-08T18:28:35.274Z,7.40
2019-03-08T18:31:57.201Z,7.40
2019-03-08T18:35:13.856Z,7.10
2019-03-08T18:38:40.545Z,6.90
2019-03-08T18:41:56.294Z,6.80
2019-03-08T18:45:04.616Z,6.60
2019-03-08T18:48:14.728Z,6.40
2019-03-08T18:51:24.844Z,6.10
2019-03-08T18:54:19.402Z,6.00
2019-03-08T18:57:29.461Z,6.20
2019-03-08T19:00:27.735Z,6.40
2019-03-08T19:03:35.962Z,6.50
2019-03-08T19:06:43.045Z,6.50
2019-03-08T19:09:42.737Z,6.30
2019-03-08T19:13:05.173Z,6.30
2019-03-08T19:16:07.795Z,6.30
2019-03-08T19:19:19.353Z,6.40
2019-03-08T19:22:26.817Z,6.60
2019-03-08T19:25:34.605Z,6.80
2019-03-08T19:28:41.397Z,7.00
2019-03-08T19:32:23.996Z,7.30
2019-03-08T19:35:52.310Z,7.30
2019-03-08T19:42:59.002Z,7.20
2019-03-08T19:46:06.925Z,7.20
2019-03-08T19:49:15.189Z,7.10
2019-03-08T19:52:15.875Z,7.10
2019-03-08T19:55:32.021Z,7.00
2019-03-08T19:58:39.469Z,6.90
2019-03-08T20:01:50.547Z,6.80
2019-03-08T20:04:53.709Z,6.70
2019-03-08T20:07:52.412Z,6.60
2019-03-08T20:11:05.175Z,6.80
2019-03-08T20:14:06.601Z,7.00
2019-03-08T20:17:20.301Z,7.10
2019-03-08T20:20:50.079Z,7.20
2019-03-08T20:24:04.037Z,7.30
2019-03-08T20:27:08.822Z,7.30
2019-03-08T20:30:15.495Z,7.40
2019-03-08T20:33:20.264Z,7.30
2019-03-08T20:36:26.010Z,7.10
2019-03-08T20:39:36.738Z,6.90
2019-03-08T20:42:36.571Z,6.80
2019-03-08T20:45:58.866Z,6.80
2019-03-08T20:48:51.897Z,6.70
2019-03-08T20:52:38.648Z,6.60
2019-03-08T20:55:20.505Z,6.50
2019-03-08T21:02:11.136Z,6.70
2019-03-08T21:09:06.790Z,6.90
2019-03-08T21:16:01.485Z,6.80
2019-03-08T21:19:05.935Z,6.90
2019-03-08T21:22:41.287Z,7.00
2019-03-08T21:25:37.264Z,7.00
2019-03-08T21:29:14.836Z,6.90
2019-03-08T21:32:25.680Z,7.00
2019-03-08T21:35:53.429Z,6.90
2019-03-08T21:38:58.287Z,6.90
2019-03-08T21:42:16.897Z,6.80
2019-03-08T21:45:29.159Z,6.70
2019-03-08T21:48:29.048Z,6.60
2019-03-08T21:51:34.939Z,6.60
2019-03-08T21:55:24.709Z,6.50
2019-03-08T21:58:43.673Z,6.40
2019-03-08T22:01:59.175Z,6.40
2019-03-08T22:09:31.558Z,6.40
2019-03-08T22:12:57.250Z,6.30
2019-03-08T22:16:07.779Z,6.30
2019-03-08T22:20:46.308Z,6.20
2019-03-08T22:22:40.085Z,6.00
2019-03-08T22:25:59.030Z,6.00
2019-03-08T22:29:02.025Z,5.90
2019-03-08T22:32:13.227Z,5.90
2019-03-08T22:35:00.916Z,5.90
2019-03-08T22:37:48.532Z,5.90
2019-03-08T22:40:36.976Z,5.80
2019-03-08T22:43:24.914Z,5.80
2019-03-08T22:46:12.975Z,5.80
2019-03-08T22:49:01.439Z,5.80
2019-03-08T22:51:49.276Z,5.70
2019-03-08T22:54:39.664Z,5.70
2019-03-08T22:57:27.605Z,5.70
2019-03-08T23:01:13.592Z,5.60
2019-03-08T23:04:03.321Z,5.50
2019-03-08T23:06:52.240Z,5.50
2019-03-08T23:09:40.582Z,5.50
2019-03-08T23:12:35.181Z,5.40
2019-03-08T23:15:44.299Z,5.40
2019-03-08T23:18:35.304Z,5.40
2019-03-08T23:21:22.799Z,5.30
2019-03-08T23:24:10.459Z,5.40
2019-03-08T23:27:06.705Z,5.30
2019-03-08T23:29:57.210Z,5.30
2019-03-08T23:32:47.802Z,5.30
2019-03-08T23:35:34.993Z,5.40
2019-03-08T23:38:22.323Z,5.40
2019-03-08T23:41:10.084Z,5.40
2019-03-08T23:43:58.202Z,5.40
2019-03-08T23:46:45.711Z,5.40
2019-03-08T23:49:33.346Z,5.50
2019-03-08T23:52:21.221Z,5.70
2019-03-08T23:55:09.390Z,6.00
2019-03-08T23:57:56.401Z,6.30
